< < Back
Terminal Aerodrome Forecast


Current Version              Previous Versions:   1  2  3  4  5  6  7  8  9  

Terminal Aerodrome Forecast

875
FTUS44 KMOB 010500
TAFMOB
TAF
KMOB 010529Z 0106/0206 34017G27KT P6SM SCT040
     FM011500 35015KT P6SM SKC
     FM012300 35005KT P6SM SKC=

Latest METAR

803
SAUS80 KWBC 010900 RRL
MTRMOB
METAR KMOB 010856Z AUTO 35013KT 10SM CLR 06/M03 A3021 RMK AO2 SLP229
T00561033 53014


USA.gov is the U.S. government's official web portal to all federal, state and local government web resources and services.